• Join FlightAware (Why Join?)
  • Login
  • US Flag 
Rudolph Flight #1: Arrived! 
06:20AM EST


 

Airport Tracker/Info


-or-


 

Live Flight TrackerFlight Track Log ✈ SWA2336 ✈ 06-Jul-2013 ✈ KFLL - KBWI

Flight Track Log - Related Links

Times and Time Zones

All times are in EDT time to prevent confusion due to time zone crossing. See the SWA2336 flight status page for this flight to view local times or setup timezone preferences in your user account.

Time Position Orientation Groundspeed Altitude Reporting Facility
EDT Latitude Longitude Course Direction KTS MPH feet Rate Location/Type
06:54PM 26.0769 -80.1392 80° East 149 171 800  Level Miami Center
06:55PM 26.0892 -80.0583 80° East 199 229 3,000 1,200 Climbing Miami Center
06:56PM 26.0992 -79.9847 81° East 226 260 3,700 2,160 Climbing Miami Center
06:57PM 26.1319 -79.9114 64° Northeast 240 276 7,400 3,600 Climbing Miami Center
06:58PM 26.1711 -79.8383 59° Northeast 256 295 10,900 3,000 Climbing Miami Center
06:59PM 26.2144 -79.7583 59° Northeast 268 308 13,500 1,920 Climbing Miami Center
07:00PM 26.2625 -79.6600 61° Northeast 312 359 14,800 1,860 Climbing Miami Center
07:01PM 26.3286 -79.5828 46° Northeast 373 429 17,300 2,340 Climbing Miami Center
07:02PM 26.4447 -79.5158 27° Northeast 397 457 19,500 2,160 Climbing Miami Center
07:03PM 26.5397 -79.4600 28° Northeast 423 487 21,700 2,160 Climbing Miami Center
07:04PM 26.6600 -79.3906 27° Northeast 436 502 23,900 1,860 Climbing Miami Center
07:05PM 26.7739 -79.3256 27° Northeast 442 509 25,500 1,500 Climbing Miami Center
07:06PM 26.8919 -79.2603 26° Northeast 459 528 27,000 1,620 Climbing Miami Center
07:07PM 27.0061 -79.1858 30° Northeast 464 534 28,800 1,800 Climbing Miami Center
07:08PM 27.1156 -79.1250 26° Northeast 474 545 30,700 1,800 Climbing Miami Center
07:09PM 27.2414 -79.0900 14° North 474 545 32,400 1,800 Climbing Miami Center
07:10PM 27.3858 -79.0672 North 467 537 34,300 1,740 Climbing Miami Center
07:11PM 27.5156 -79.0439 North 467 537 35,900 1,500 Climbing Miami Center
07:12PM 27.6392 -79.0275 North 460 529 37,300 1,260 Climbing Miami Center
07:13PM 27.7500 -79.0083 North 460 529 38,500 840 Climbing Miami Center
07:14PM 27.8778 -78.9897 North 460 529 39,000 240 Climbing Miami Center
07:15PM 28.0136 -78.9686 North 453 521 39,000  Level Miami Center
07:16PM 28.1372 -78.9475 North 447 514 39,000  Level Miami Center
07:17PM 28.2586 -78.9283 North 442 509 39,000  Level Miami Center
07:18PM 28.3800 -78.9072 North 447 514 39,000  Level Miami Center
07:19PM 28.5056 -78.8858 North 447 514 39,000  Level Miami Center
07:20PM 28.6289 -78.8667 North 447 514 39,000  Level Miami Center
07:21PM 28.7544 -78.8500 North 447 514 39,000  Level Miami Center
07:22PM 28.8778 -78.8286 North 442 509 39,000  Level Miami Center
07:23PM 28.9992 -78.8094 North 447 514 39,000  Level Miami Center
07:24PM 29.1244 -78.7878 North 447 514 39,000  Level Miami Center
07:25PM 29.2519 -78.7686 North 447 514 39,000  Level Miami Center
07:26PM 29.3733 -78.7469 North 452 520 39,000  Level Miami Center
07:28PM 29.6464 -78.6989 North 446 513 39,000  Level Jacksonville Center
07:29PM 29.7753 -78.6814 North 452 520 39,000  Level Jacksonville Center
07:30PM 29.8869 -78.6478 15° North 442 509 39,000  Level Jacksonville Center
07:31PM 30.0139 -78.6328 North 450 518 39,000  Level Jacksonville Center
07:32PM 30.1406 -78.6175 North 446 513 39,000  Level Jacksonville Center
07:33PM 30.2506 -78.5958 10° North 440 506 39,000  Level Jacksonville Center
07:34PM 30.3708 -78.5761 North 440 506 39,000  Level Jacksonville Center
07:35PM 30.5036 -78.5556 North 462 532 39,000  Level Jacksonville Center
07:36PM 30.6200 -78.5358 North 455 524 39,000  Level Jacksonville Center
07:37PM 30.7486 -78.5131 North 455 524 39,000  Level Jacksonville Center
07:38PM 30.8753 -78.4900 North 464 534 39,000  Level Jacksonville Center
07:39PM 30.9956 -78.4700 North 448 516 39,000  Level Jacksonville Center
07:40PM 31.1264 -78.4517 North 448 516 39,000  Level Jacksonville Center
07:41PM 31.2508 -78.4289 North 448 516 39,000  Level Jacksonville Center
07:42PM 31.3733 -78.4083 North 448 516 39,000  Level Jacksonville Center
07:43PM 31.4958 -78.3878 North 443 510 39,000  Level Jacksonville Center
07:44PM 31.6222 -78.3647 North 443 510 39,000  Level Jacksonville Center
07:45PM 31.7406 -78.3442 North 443 510 39,000  Level Jacksonville Center
07:46PM 31.8650 -78.3208 North 441 507 39,000  Level Jacksonville Center
07:47PM 31.9894 -78.3000 North 441 507 39,000  Level Jacksonville Center
07:48PM 32.1136 -78.2767 North 447 514 39,000  Level Jacksonville Center
07:49PM 32.2342 -78.2583 North 441 507 39,000  Level Jacksonville Center
07:50PM 32.3731 -78.2317 North 446 513 39,000  Level Jacksonville Center
07:51PM 32.4953 -78.2081 North 446 513 39,000  Level Jacksonville Center
07:52PM 32.6217 -78.1842 North 446 513 39,000  Level Jacksonville Center
07:53PM 32.7461 -78.1631 North 446 513 39,000  Level Jacksonville Center
07:54PM 32.8706 -78.1417 North 446 513 39,000  Level Jacksonville Center
07:55PM 32.9950 -78.1203 North 446 513 39,000  Level Jacksonville Center
07:56PM 33.1194 -78.0986 North 446 513 39,000  Level Jacksonville Center
07:58PM 33.3161 -78.0642 North 443 510 39,000  Level Washington Center
07:59PM 33.4375 -78.0403 North 443 510 39,000  Level Washington Center
08:00PM 33.5611 -78.0189 North 449 517 39,000  Level Washington Center
08:01PM 33.6844 -77.9975 North 449 517 39,000  Level Washington Center
08:02PM 33.8081 -77.9761 North 449 517 39,000  Level Washington Center
08:03PM 33.9275 -77.9519 10° North 458 527 39,000 -180 Level Washington Center
08:04PM 34.0511 -77.9281 North 458 527 38,700 -660 Descending Washington Center
08:05PM 34.1767 -77.9089 North 458 527 37,700 -900 Descending Washington Center
08:06PM 34.3083 -77.8900 North 458 527 37,000 -360 Descending Washington Center
08:07PM 34.4339 -77.8683 North 464 534 37,000  Level Washington Center
08:08PM 34.5594 -77.8467 North 464 534 37,000  Level Washington Center
08:09PM 34.6872 -77.8250 North 459 528 37,000  Level Washington Center
08:10PM 34.8150 -77.8006 North 459 528 37,000  Level Washington Center
08:11PM 34.9383 -77.7786 North 459 528 37,000  Level Washington Center
08:12PM 35.0661 -77.7567 North 459 528 37,000  Level Washington Center
08:13PM 35.1981 -77.7322 North 459 528 37,000  Level Washington Center
08:14PM 35.3236 -77.7100 North 464 534 37,000  Level Washington Center
08:15PM 35.4514 -77.6881 North 464 534 37,000  Level Washington Center
08:16PM 35.5936 -77.6636 North 469 540 37,000  Level Washington Center
08:17PM 35.7211 -77.6439 North 464 534 37,000  Level Washington Center
08:18PM 35.8489 -77.6189 North 464 534 37,000  Level Washington Center
08:19PM 35.9767 -77.5967 North 464 534 37,000 -180 Level Washington Center
08:20PM 36.1064 -77.5742 North 464 534 36,700 -1,620 Descending Washington Center
08:21PM 36.2339 -77.5517 North 464 534 33,800 -3,120 Descending Washington Center
08:22PM 36.3636 -77.5292 North 464 534 30,500 -2,400 Descending Washington Center
08:23PM 36.4933 -77.5064 North 464 534 29,000 -780 Descending Washington Center
08:24PM 36.6272 -77.4839 North 470 541 29,000  Level Washington Center
08:25PM 36.7569 -77.4586 North 470 541 29,000 -540 Level Washington Center
08:26PM 36.8908 -77.4331 North 470 541 28,000 -900 Descending Washington Center
08:27PM 37.0206 -77.4103 North 470 541 27,200 -540 Descending Washington Center
08:28PM 37.1544 -77.3847 North 470 541 27,000 -120 Descending Washington Center
08:29PM 37.2842 -77.3642 North 470 541 27,000 -1,200 Level Washington Center
08:30PM 37.4117 -77.3383 North 465 535 24,700 -2,040 Descending Washington Center
08:31PM 37.5372 -77.3150 North 465 535 23,000 -900 Descending Washington Center
08:32PM 37.6608 -77.2892 North 460 529 23,000  Level Washington Center
08:33PM 37.7819 -77.2656 North 449 517 23,000  Level Washington Center
08:34PM 37.8992 -77.2364 11° North 443 510 23,000  Level Washington Center
08:35PM 38.0147 -77.1731 23° Northeast 436 502 23,000 -1,740 Level Washington Center
08:36PM 38.1200 -77.0883 32° Northeast 436 502 19,600 -2,460 Descending Washington Center
08:37PM 38.2211 -77.0056 33° Northeast 436 502 18,100 -1,560 Descending Washington Center
08:38PM 38.2969 -76.9383 35° Northeast 427 491 16,500 -2,100 Descending Washington Center
08:39PM 38.3981 -76.8606 31° Northeast 394 453 14,000 -2,400 Descending Washington Center
08:40PM 38.4883 -76.7853 33° Northeast 389 448 11,700 -1,920 Descending Washington Center
08:41PM 38.5725 -76.7150 33° Northeast 382 440 10,300 -1,320 Descending Washington Center
08:42PM 38.6833 -76.6167 35° Northeast 307 353 8,700 -1,380 Descending Potomac TRACON
08:43PM 38.7500 -76.5667 30° Northeast 301 346 7,200 -1,500 Descending Potomac TRACON
08:44PM 38.8167 -76.5167 30° Northeast 298 343 5,700 -1,440 Descending Potomac TRACON
08:45PM 38.9000 -76.5167 360° North 283 326 4,200 -1,380 Descending Potomac TRACON
08:46PM 38.9667 -76.5333 349° North 281 323 3,000 -720 Descending Potomac TRACON
08:47PM 39.0500 -76.5500 351° North 226 260 2,900 -540 Descending Potomac TRACON
08:48PM 39.0833 -76.5833 322° Northwest 190 219 2,000 -960 Descending Potomac TRACON
08:49PM 39.1167 -76.6333 311° West 175 201 1,100 -1,020 Descending Potomac TRACON
08:51PM 39.1667 -76.6667 339° North  Level FlightAware Approximate
08:58PM 39.1754 -76.6683 339° North  Level Estimated
08:59PM 39.1754 -76.6683 339° North  Level Estimated
09:00PM 39.1754 -76.6683 339° North  Level Estimated